Pleasant Ridge, Mississippi
Current Conditions -  °F | °C
As of 3:35 PM on Friday 31 Oct 2014 (Local Time) from KCRX Reporting Station
Overcast Overcast  
Wind Chill: 54°   Ceiling: 4000
Heat Index: 54°   Visibility: 7mi
Dew Point: 41°   Wind: 15mph
Humidity: 62%   Direction: 330°NNW
Pressure: 30.08"   Gusts: 28mph
Location:  34.6406°N, 88.8031°W
Report Text: KCRX 312035Z AUTO 33013G24KT 7SM FEW031 BKN040 OVC060 12/05 A3008 RMK AO2
Loading
Personal Weather Stations






























Interactive Weather Map
Tropical Storm Tracking
New forecast layout! Learn more

10-Day Weather Forecast

Advertisements
Track Severe Weather on mobile